sensor_id;sensor_type;location;lat;lon;timestamp;temperature;humidity
18839;DHT22;9548;56.920;14.804;2023-04-03T00:01:45;-2.20;99.90
18839;DHT22;9548;56.920;14.804;2023-04-03T00:04:12;-2.10;99.90
18839;DHT22;9548;56.920;14.804;2023-04-03T00:06:39;-2.10;99.90
18839;DHT22;9548;56.920;14.804;2023-04-03T00:09:06;-2.00;99.90
18839;DHT22;9548;56.920;14.804;2023-04-03T00:11:33;-2.00;99.90
18839;DHT22;9548;56.920;14.804;2023-04-03T00:14:00;-1.90;99.90
18839;DHT22;9548;56.920;14.804;2023-04-03T00:16:28;-1.90;99.90
18839;DHT22;9548;56.920;14.804;2023-04-03T00:18:55;-2.10;99.90
18839;DHT22;9548;56.920;14.804;2023-04-03T00:21:22;-2.00;99.90
18839;DHT22;9548;56.920;14.804;2023-04-03T00:23:49;-2.10;99.90
18839;DHT22;9548;56.920;14.804;2023-04-03T00:26:16;-2.10;99.90
18839;DHT22;9548;56.920;14.804;2023-04-03T00:28:43;-2.20;99.90
18839;DHT22;9548;56.920;14.804;2023-04-03T00:31:10;-2.20;99.90
18839;DHT22;9548;56.920;14.804;2023-04-03T00:33:38;-2.20;99.90
18839;DHT22;9548;56.920;14.804;2023-04-03T00:36:07;-2.10;99.90
18839;DHT22;9548;56.920;14.804;2023-04-03T00:38:34;-2.20;99.90
18839;DHT22;9548;56.920;14.804;2023-04-03T00:41:02;-2.20;99.90
18839;DHT22;9548;56.920;14.804;2023-04-03T00:43:29;-2.20;99.90
18839;DHT22;9548;56.920;14.804;2023-04-03T00:45:57;-2.20;99.90
18839;DHT22;9548;56.920;14.804;2023-04-03T00:48:27;-2.30;99.90
18839;DHT22;9548;56.920;14.804;2023-04-03T00:50:57;-2.30;99.90
18839;DHT22;9548;56.920;14.804;2023-04-03T00:53:27;-2.40;99.90
18839;DHT22;9548;56.920;14.804;2023-04-03T00:55:56;-2.50;99.90
18839;DHT22;9548;56.920;14.804;2023-04-03T00:58:28;-2.50;99.90
18839;DHT22;9548;56.920;14.804;2023-04-03T01:00:58;-2.50;99.90
18839;DHT22;9548;56.920;14.804;2023-04-03T01:03:26;-2.50;99.90
18839;DHT22;9548;56.920;14.804;2023-04-03T01:05:53;-2.40;99.90
18839;DHT22;9548;56.920;14.804;2023-04-03T01:08:21;-2.50;99.90
18839;DHT22;9548;56.920;14.804;2023-04-03T01:10:48;-2.50;99.90
18839;DHT22;9548;56.920;14.804;2023-04-03T01:13:21;-2.60;99.90
18839;DHT22;9548;56.920;14.804;2023-04-03T01:15:48;-2.70;99.90
18839;DHT22;9548;56.920;14.804;2023-04-03T01:18:15;-2.70;99.90
18839;DHT22;9548;56.920;14.804;2023-04-03T01:21:08;-2.70;99.90
18839;DHT22;9548;56.920;14.804;2023-04-03T01:23:51;-2.70;99.90
18839;DHT22;9548;56.920;14.804;2023-04-03T01:26:19;-2.70;99.90
18839;DHT22;9548;56.920;14.804;2023-04-03T01:28:47;-2.70;99.90
18839;DHT22;9548;56.920;14.804;2023-04-03T01:31:20;-2.80;99.90
18839;DHT22;9548;56.920;14.804;2023-04-03T01:33:50;-2.80;99.90
18839;DHT22;9548;56.920;14.804;2023-04-03T01:36:20;-2.80;99.90
18839;DHT22;9548;56.920;14.804;2023-04-03T01:38:48;-2.80;99.90
18839;DHT22;9548;56.920;14.804;2023-04-03T01:41:15;-2.80;99.90
18839;DHT22;9548;56.920;14.804;2023-04-03T01:43:42;-2.90;99.90
18839;DHT22;9548;56.920;14.804;2023-04-03T01:46:09;-2.90;99.90
18839;DHT22;9548;56.920;14.804;2023-04-03T01:48:37;-3.00;99.90
18839;DHT22;9548;56.920;14.804;2023-04-03T01:51:05;-3.10;99.90
18839;DHT22;9548;56.920;14.804;2023-04-03T01:53:32;-3.10;99.90
18839;DHT22;9548;56.920;14.804;2023-04-03T01:55:59;-3.20;99.90
18839;DHT22;9548;56.920;14.804;2023-04-03T01:58:26;-3.20;99.90
18839;DHT22;9548;56.920;14.804;2023-04-03T02:00:53;-3.10;99.90
18839;DHT22;9548;56.920;14.804;2023-04-03T02:03:20;-3.10;99.90
18839;DHT22;9548;56.920;14.804;2023-04-03T02:05:47;-3.10;99.90
18839;DHT22;9548;56.920;14.804;2023-04-03T02:08:16;-3.10;99.90
18839;DHT22;9548;56.920;14.804;2023-04-03T02:10:43;-3.20;99.90
18839;DHT22;9548;56.920;14.804;2023-04-03T02:13:10;-3.20;99.90
18839;DHT22;9548;56.920;14.804;2023-04-03T02:15:38;-3.30;99.90
18839;DHT22;9548;56.920;14.804;2023-04-03T02:18:06;-3.20;99.90
18839;DHT22;9548;56.920;14.804;2023-04-03T02:20:33;-3.10;99.90
18839;DHT22;9548;56.920;14.804;2023-04-03T02:23:00;-3.20;99.90
18839;DHT22;9548;56.920;14.804;2023-04-03T02:25:30;-3.20;99.90
18839;DHT22;9548;56.920;14.804;2023-04-03T02:27:57;-3.30;99.90
18839;DHT22;9548;56.920;14.804;2023-04-03T02:30:24;-3.20;99.90
18839;DHT22;9548;56.920;14.804;2023-04-03T02:32:51;-3.30;99.90
18839;DHT22;9548;56.920;14.804;2023-04-03T02:35:19;-3.40;99.90
18839;DHT22;9548;56.920;14.804;2023-04-03T02:37:46;-3.40;99.90
18839;DHT22;9548;56.920;14.804;2023-04-03T02:40:14;-3.50;99.90
18839;DHT22;9548;56.920;14.804;2023-04-03T02:42:42;-3.50;99.90
18839;DHT22;9548;56.920;14.804;2023-04-03T02:45:10;-3.30;99.90
18839;DHT22;9548;56.920;14.804;2023-04-03T02:47:37;-3.20;99.90
18839;DHT22;9548;56.920;14.804;2023-04-03T04:04:05;-3.80;99.90
18839;DHT22;9548;56.920;14.804;2023-04-03T04:06:32;-3.90;99.90
18839;DHT22;9548;56.920;14.804;2023-04-03T04:08:59;-4.00;99.90
18839;DHT22;9548;56.920;14.804;2023-04-03T04:11:26;-4.10;99.90
18839;DHT22;9548;56.920;14.804;2023-04-03T04:13:53;-4.20;99.90
18839;DHT22;9548;56.920;14.804;2023-04-03T04:16:20;-4.20;99.90
18839;DHT22;9548;56.920;14.804;2023-04-03T04:18:47;-4.10;99.90
18839;DHT22;9548;56.920;14.804;2023-04-03T04:21:15;-4.00;99.90
18839;DHT22;9548;56.920;14.804;2023-04-03T04:23:42;-4.10;99.90
18839;DHT22;9548;56.920;14.804;2023-04-03T04:26:10;-4.10;99.90
18839;DHT22;9548;56.920;14.804;2023-04-03T04:28:37;-4.10;99.90
18839;DHT22;9548;56.920;14.804;2023-04-03T04:31:03;-4.00;99.90
18839;DHT22;9548;56.920;14.804;2023-04-03T04:33:30;-4.00;99.90
18839;DHT22;9548;56.920;14.804;2023-04-03T04:35:57;-4.00;99.90
18839;DHT22;9548;56.920;14.804;2023-04-03T04:38:25;-4.00;99.90
18839;DHT22;9548;56.920;14.804;2023-04-03T04:40:52;-4.00;99.90
18839;DHT22;9548;56.920;14.804;2023-04-03T04:43:19;-4.00;99.90
18839;DHT22;9548;56.920;14.804;2023-04-03T04:45:46;-3.90;99.90
18839;DHT22;9548;56.920;14.804;2023-04-03T04:48:13;-4.00;99.90
18839;DHT22;9548;56.920;14.804;2023-04-03T04:50:40;-4.00;99.90
18839;DHT22;9548;56.920;14.804;2023-04-03T04:53:07;-3.90;99.90
18839;DHT22;9548;56.920;14.804;2023-04-03T04:55:35;-3.90;99.90
18839;DHT22;9548;56.920;14.804;2023-04-03T04:58:02;-3.90;99.90
18839;DHT22;9548;56.920;14.804;2023-04-03T05:00:29;-3.90;99.90
18839;DHT22;9548;56.920;14.804;2023-04-03T05:02:56;-3.90;99.90
18839;DHT22;9548;56.920;14.804;2023-04-03T05:05:23;-3.90;99.90
18839;DHT22;9548;56.920;14.804;2023-04-03T05:07:50;-3.80;99.90
18839;DHT22;9548;56.920;14.804;2023-04-03T05:10:17;-3.80;99.90
18839;DHT22;9548;56.920;14.804;2023-04-03T05:12:45;-3.70;99.90
18839;DHT22;9548;56.920;14.804;2023-04-03T05:15:12;-3.70;99.90
18839;DHT22;9548;56.920;14.804;2023-04-03T05:17:39;-3.70;99.90
18839;DHT22;9548;56.920;14.804;2023-04-03T05:20:07;-3.70;99.90
18839;DHT22;9548;56.920;14.804;2023-04-03T05:22:34;-3.70;99.90
18839;DHT22;9548;56.920;14.804;2023-04-03T05:25:01;-3.70;99.90
18839;DHT22;9548;56.920;14.804;2023-04-03T05:27:28;-3.60;99.90
18839;DHT22;9548;56.920;14.804;2023-04-03T05:29:56;-3.60;99.90
18839;DHT22;9548;56.920;14.804;2023-04-03T05:32:24;-3.40;99.90
18839;DHT22;9548;56.920;14.804;2023-04-03T05:34:52;-3.40;99.90
18839;DHT22;9548;56.920;14.804;2023-04-03T05:37:19;-3.50;99.90
18839;DHT22;9548;56.920;14.804;2023-04-03T05:39:46;-3.40;99.90
18839;DHT22;9548;56.920;14.804;2023-04-03T05:42:13;-3.40;99.90
18839;DHT22;9548;56.920;14.804;2023-04-03T05:44:41;-3.40;99.90
18839;DHT22;9548;56.920;14.804;2023-04-03T05:47:09;-3.40;99.90
18839;DHT22;9548;56.920;14.804;2023-04-03T05:49:36;-3.40;99.90
18839;DHT22;9548;56.920;14.804;2023-04-03T05:52:06;-3.40;99.90
18839;DHT22;9548;56.920;14.804;2023-04-03T05:54:33;-3.40;99.90
18839;DHT22;9548;56.920;14.804;2023-04-03T05:57:00;-3.30;99.90
18839;DHT22;9548;56.920;14.804;2023-04-03T05:59:27;-3.30;99.90
18839;DHT22;9548;56.920;14.804;2023-04-03T06:01:54;-3.30;99.90
18839;DHT22;9548;56.920;14.804;2023-04-03T06:04:22;-3.10;99.90
18839;DHT22;9548;56.920;14.804;2023-04-03T06:06:51;-3.00;99.90
18839;DHT22;9548;56.920;14.804;2023-04-03T06:09:19;-3.00;99.90
18839;DHT22;9548;56.920;14.804;2023-04-03T06:11:47;-3.00;99.90
18839;DHT22;9548;56.920;14.804;2023-04-03T06:14:14;-2.90;99.90
18839;DHT22;9548;56.920;14.804;2023-04-03T06:16:41;-2.90;99.90
18839;DHT22;9548;56.920;14.804;2023-04-03T06:19:09;-2.80;99.90
18839;DHT22;9548;56.920;14.804;2023-04-03T06:21:38;-2.80;99.90
18839;DHT22;9548;56.920;14.804;2023-04-03T06:24:06;-2.80;99.90
18839;DHT22;9548;56.920;14.804;2023-04-03T06:26:33;-2.80;99.90
18839;DHT22;9548;56.920;14.804;2023-04-03T06:29:00;-2.70;99.90
18839;DHT22;9548;56.920;14.804;2023-04-03T06:31:28;-2.70;99.90
18839;DHT22;9548;56.920;14.804;2023-04-03T06:33:55;-2.70;99.90
18839;DHT22;9548;56.920;14.804;2023-04-03T06:36:22;-2.60;99.90
18839;DHT22;9548;56.920;14.804;2023-04-03T06:38:51;-2.60;99.90
18839;DHT22;9548;56.920;14.804;2023-04-03T06:41:18;-2.60;99.90
18839;DHT22;9548;56.920;14.804;2023-04-03T06:43:46;-2.50;99.90
18839;DHT22;9548;56.920;14.804;2023-04-03T06:46:14;-2.40;99.90
18839;DHT22;9548;56.920;14.804;2023-04-03T06:48:43;-2.30;99.90
18839;DHT22;9548;56.920;14.804;2023-04-03T06:51:17;-2.20;99.90
18839;DHT22;9548;56.920;14.804;2023-04-03T06:53:45;-2.10;99.90
18839;DHT22;9548;56.920;14.804;2023-04-03T06:56:13;-2.00;99.90
18839;DHT22;9548;56.920;14.804;2023-04-03T06:58:41;-1.90;99.90
18839;DHT22;9548;56.920;14.804;2023-04-03T07:01:08;-1.80;99.90
18839;DHT22;9548;56.920;14.804;2023-04-03T07:03:36;-1.60;99.90
18839;DHT22;9548;56.920;14.804;2023-04-03T07:06:04;-1.50;99.90
18839;DHT22;9548;56.920;14.804;2023-04-03T07:08:33;-1.40;99.90
18839;DHT22;9548;56.920;14.804;2023-04-03T07:11:00;-1.30;99.90
18839;DHT22;9548;56.920;14.804;2023-04-03T07:13:28;-1.20;99.90
18839;DHT22;9548;56.920;14.804;2023-04-03T07:15:55;-1.20;99.90
18839;DHT22;9548;56.920;14.804;2023-04-03T07:18:23;-1.10;99.90
18839;DHT22;9548;56.920;14.804;2023-04-03T07:20:50;-1.00;99.90
18839;DHT22;9548;56.920;14.804;2023-04-03T07:23:17;-1.00;99.90
18839;DHT22;9548;56.920;14.804;2023-04-03T07:25:45;-0.80;99.90
18839;DHT22;9548;56.920;14.804;2023-04-03T07:28:12;-0.80;99.90
18839;DHT22;9548;56.920;14.804;2023-04-03T07:30:44;-0.80;99.90
18839;DHT22;9548;56.920;14.804;2023-04-03T07:33:12;-0.70;99.90
18839;DHT22;9548;56.920;14.804;2023-04-03T07:35:40;-0.70;99.90
18839;DHT22;9548;56.920;14.804;2023-04-03T07:38:07;-0.70;99.90
18839;DHT22;9548;56.920;14.804;2023-04-03T07:40:34;-0.60;99.90
18839;DHT22;9548;56.920;14.804;2023-04-03T07:43:01;-0.50;99.90
18839;DHT22;9548;56.920;14.804;2023-04-03T07:45:28;-0.40;99.90
18839;DHT22;9548;56.920;14.804;2023-04-03T07:47:57;-0.30;99.90
18839;DHT22;9548;56.920;14.804;2023-04-03T07:50:23;-0.20;99.90
18839;DHT22;9548;56.920;14.804;2023-04-03T07:52:50;-0.20;99.90
18839;DHT22;9548;56.920;14.804;2023-04-03T07:55:20;-0.10;99.90
18839;DHT22;9548;56.920;14.804;2023-04-03T07:57:46;0.00;99.90
18839;DHT22;9548;56.920;14.804;2023-04-03T08:00:14;0.00;99.90
18839;DHT22;9548;56.920;14.804;2023-04-03T08:02:43;0.00;99.90
18839;DHT22;9548;56.920;14.804;2023-04-03T08:05:17;0.20;99.90
18839;DHT22;9548;56.920;14.804;2023-04-03T08:07:44;0.30;99.90
18839;DHT22;9548;56.920;14.804;2023-04-03T08:10:12;0.50;99.90
18839;DHT22;9548;56.920;14.804;2023-04-03T08:12:39;0.50;99.90
18839;DHT22;9548;56.920;14.804;2023-04-03T08:15:07;0.50;99.90
18839;DHT22;9548;56.920;14.804;2023-04-03T08:17:34;0.60;99.90
18839;DHT22;9548;56.920;14.804;2023-04-03T08:20:01;0.70;99.90
18839;DHT22;9548;56.920;14.804;2023-04-03T08:22:30;0.90;99.90
18839;DHT22;9548;56.920;14.804;2023-04-03T08:24:57;0.90;99.90
18839;DHT22;9548;56.920;14.804;2023-04-03T08:27:24;0.90;99.90
18839;DHT22;9548;56.920;14.804;2023-04-03T08:29:52;0.90;99.90
18839;DHT22;9548;56.920;14.804;2023-04-03T08:32:19;1.00;99.90
18839;DHT22;9548;56.920;14.804;2023-04-03T08:34:46;1.10;99.90
18839;DHT22;9548;56.920;14.804;2023-04-03T08:37:13;1.20;99.90
18839;DHT22;9548;56.920;14.804;2023-04-03T08:39:43;1.30;99.90
18839;DHT22;9548;56.920;14.804;2023-04-03T08:42:16;1.40;99.90
18839;DHT22;9548;56.920;14.804;2023-04-03T08:44:47;1.60;99.90
18839;DHT22;9548;56.920;14.804;2023-04-03T08:47:22;1.80;99.90
18839;DHT22;9548;56.920;14.804;2023-04-03T08:49:52;1.90;99.90
18839;DHT22;9548;56.920;14.804;2023-04-03T08:52:26;2.00;99.90
18839;DHT22;9548;56.920;14.804;2023-04-03T08:54:58;2.20;99.90
18839;DHT22;9548;56.920;14.804;2023-04-03T08:57:29;2.40;99.90
18839;DHT22;9548;56.920;14.804;2023-04-03T08:59:59;2.50;99.90
18839;DHT22;9548;56.920;14.804;2023-04-03T09:02:31;2.70;99.90
18839;DHT22;9548;56.920;14.804;2023-04-03T09:05:01;2.90;99.90
18839;DHT22;9548;56.920;14.804;2023-04-03T09:07:35;3.10;99.90
18839;DHT22;9548;56.920;14.804;2023-04-03T09:10:06;3.10;99.90
18839;DHT22;9548;56.920;14.804;2023-04-03T09:12:37;3.20;99.90
18839;DHT22;9548;56.920;14.804;2023-04-03T09:15:14;3.20;99.90
18839;DHT22;9548;56.920;14.804;2023-04-03T09:17:53;3.40;99.90
18839;DHT22;9548;56.920;14.804;2023-04-03T09:20:26;3.50;99.90
18839;DHT22;9548;56.920;14.804;2023-04-03T09:22:56;3.60;99.90
18839;DHT22;9548;56.920;14.804;2023-04-03T09:25:27;3.60;99.90
18839;DHT22;9548;56.920;14.804;2023-04-03T09:27:56;3.80;99.90
18839;DHT22;9548;56.920;14.804;2023-04-03T09:30:25;3.90;99.90
18839;DHT22;9548;56.920;14.804;2023-04-03T09:32:54;4.10;99.90
18839;DHT22;9548;56.920;14.804;2023-04-03T09:35:24;4.40;99.90
18839;DHT22;9548;56.920;14.804;2023-04-03T09:37:53;4.70;99.80
18839;DHT22;9548;56.920;14.804;2023-04-03T09:40:37;5.10;99.80
18839;DHT22;9548;56.920;14.804;2023-04-03T09:43:26;5.60;97.50
18839;DHT22;9548;56.920;14.804;2023-04-03T09:45:54;6.00;97.30
18839;DHT22;9548;56.920;14.804;2023-04-03T09:48:23;6.60;94.80
18839;DHT22;9548;56.920;14.804;2023-04-03T09:50:56;7.00;93.10
18839;DHT22;9548;56.920;14.804;2023-04-03T09:53:36;7.40;93.90
18839;DHT22;9548;56.920;14.804;2023-04-03T09:56:19;7.80;93.10
18839;DHT22;9548;56.920;14.804;2023-04-03T09:58:48;8.40;91.30
18839;DHT22;9548;56.920;14.804;2023-04-03T10:01:27;9.30;89.00
18839;DHT22;9548;56.920;14.804;2023-04-03T10:04:08;10.40;86.70
18839;DHT22;9548;56.920;14.804;2023-04-03T10:06:38;11.50;83.10
18839;DHT22;9548;56.920;14.804;2023-04-03T10:09:17;12.80;77.80
18839;DHT22;9548;56.920;14.804;2023-04-03T10:12:07;14.10;69.60
18839;DHT22;9548;56.920;14.804;2023-04-03T10:14:37;14.90;63.50
18839;DHT22;9548;56.920;14.804;2023-04-03T10:17:16;15.40;57.90
18839;DHT22;9548;56.920;14.804;2023-04-03T10:19:48;15.10;59.10
18839;DHT22;9548;56.920;14.804;2023-04-03T10:22:27;15.80;59.10
18839;DHT22;9548;56.920;14.804;2023-04-03T10:25:03;16.00;56.70
18839;DHT22;9548;56.920;14.804;2023-04-03T10:27:38;16.10;54.90
18839;DHT22;9548;56.920;14.804;2023-04-03T10:30:19;17.00;54.20
18839;DHT22;9548;56.920;14.804;2023-04-03T10:32:55;17.70;51.90
18839;DHT22;9548;56.920;14.804;2023-04-03T10:35:34;17.80;49.50
18839;DHT22;9548;56.920;14.804;2023-04-03T10:38:09;17.70;48.20
18839;DHT22;9548;56.920;14.804;2023-04-03T10:40:47;18.00;48.90
18839;DHT22;9548;56.920;14.804;2023-04-03T10:43:25;18.50;49.20
18839;DHT22;9548;56.920;14.804;2023-04-03T10:45:59;19.20;47.30
18839;DHT22;9548;56.920;14.804;2023-04-03T10:48:40;20.30;46.90
18839;DHT22;9548;56.920;14.804;2023-04-03T10:51:22;21.10;46.40
18839;DHT22;9548;56.920;14.804;2023-04-03T10:53:56;21.80;44.00
18839;DHT22;9548;56.920;14.804;2023-04-03T10:56:30;21.90;41.60
18839;DHT22;9548;56.920;14.804;2023-04-03T10:59:16;22.30;42.80
18839;DHT22;9548;56.920;14.804;2023-04-03T11:01:47;23.20;41.50
18839;DHT22;9548;56.920;14.804;2023-04-03T11:04:15;23.30;39.70
18839;DHT22;9548;56.920;14.804;2023-04-03T11:06:46;23.90;40.00
18839;DHT22;9548;56.920;14.804;2023-04-03T11:09:19;24.00;40.10
18839;DHT22;9548;56.920;14.804;2023-04-03T11:11:49;23.80;38.10
18839;DHT22;9548;56.920;14.804;2023-04-03T11:14:24;21.60;37.80
18839;DHT22;9548;56.920;14.804;2023-04-03T11:16:59;20.30;38.40
18839;DHT22;9548;56.920;14.804;2023-04-03T11:19:34;20.00;41.30
18839;DHT22;9548;56.920;14.804;2023-04-03T11:22:08;21.00;42.30
18839;DHT22;9548;56.920;14.804;2023-04-03T11:24:38;22.10;40.10
18839;DHT22;9548;56.920;14.804;2023-04-03T11:27:11;23.00;40.40
18839;DHT22;9548;56.920;14.804;2023-04-03T11:29:45;24.20;38.00
18839;DHT22;9548;56.920;14.804;2023-04-03T11:35:10;23.90;34.90
18839;DHT22;9548;56.920;14.804;2023-04-03T11:37:41;24.30;37.00
18839;DHT22;9548;56.920;14.804;2023-04-03T11:40:21;25.00;36.40
18839;DHT22;9548;56.920;14.804;2023-04-03T11:42:51;25.60;35.50
18839;DHT22;9548;56.920;14.804;2023-04-03T11:45:50;26.20;34.80
18839;DHT22;9548;56.920;14.804;2023-04-03T11:48:48;26.70;35.90
18839;DHT22;9548;56.920;14.804;2023-04-03T11:51:40;26.40;32.70
18839;DHT22;9548;56.920;14.804;2023-04-03T11:54:42;26.30;32.60
18839;DHT22;9548;56.920;14.804;2023-04-03T11:57:44;26.60;35.40
18839;DHT22;9548;56.920;14.804;2023-04-03T12:12:29;28.60;30.20
18839;DHT22;9548;56.920;14.804;2023-04-03T12:17:53;28.70;31.70
18839;DHT22;9548;56.920;14.804;2023-04-03T12:20:46;28.80;31.10
18839;DHT22;9548;56.920;14.804;2023-04-03T12:23:24;29.20;29.50
18839;DHT22;9548;56.920;14.804;2023-04-03T12:26:00;29.00;32.40
18839;DHT22;9548;56.920;14.804;2023-04-03T12:28:28;28.90;29.70
18839;DHT22;9548;56.920;14.804;2023-04-03T12:30:56;29.30;31.10
18839;DHT22;9548;56.920;14.804;2023-04-03T12:33:32;29.30;31.80
18839;DHT22;9548;56.920;14.804;2023-04-03T12:36:07;28.80;28.90
18839;DHT22;9548;56.920;14.804;2023-04-03T12:39:01;29.00;31.00
18839;DHT22;9548;56.920;14.804;2023-04-03T12:41:37;28.30;31.00
18839;DHT22;9548;56.920;14.804;2023-04-03T12:44:16;29.00;32.70
18839;DHT22;9548;56.920;14.804;2023-04-03T12:46:47;29.20;29.80
18839;DHT22;9548;56.920;14.804;2023-04-03T12:49:26;28.70;28.40
18839;DHT22;9548;56.920;14.804;2023-04-03T12:51:57;29.50;29.90
18839;DHT22;9548;56.920;14.804;2023-04-03T12:54:29;30.10;29.00
18839;DHT22;9548;56.920;14.804;2023-04-03T12:57:11;28.60;28.90
18839;DHT22;9548;56.920;14.804;2023-04-03T12:59:38;26.70;28.10
18839;DHT22;9548;56.920;14.804;2023-04-03T13:02:20;27.30;30.30
18839;DHT22;9548;56.920;14.804;2023-04-03T13:04:49;27.50;28.10
18839;DHT22;9548;56.920;14.804;2023-04-03T13:07:21;25.70;29.20
18839;DHT22;9548;56.920;14.804;2023-04-03T13:10:03;25.70;30.90
18839;DHT22;9548;56.920;14.804;2023-04-03T13:12:32;25.10;29.80
18839;DHT22;9548;56.920;14.804;2023-04-03T13:15:02;25.70;29.90
18839;DHT22;9548;56.920;14.804;2023-04-03T13:17:30;27.20;29.80
18839;DHT22;9548;56.920;14.804;2023-04-03T13:20:10;26.70;29.20
18839;DHT22;9548;56.920;14.804;2023-04-03T13:22:47;28.00;31.90
18839;DHT22;9548;56.920;14.804;2023-04-03T13:25:17;28.00;28.50
18839;DHT22;9548;56.920;14.804;2023-04-03T13:27:45;26.00;29.10
18839;DHT22;9548;56.920;14.804;2023-04-03T13:30:21;24.20;29.80
18839;DHT22;9548;56.920;14.804;2023-04-03T13:32:50;22.70;30.30
18839;DHT22;9548;56.920;14.804;2023-04-03T13:35:41;23.70;30.80
18839;DHT22;9548;56.920;14.804;2023-04-03T13:38:24;25.10;30.00
18839;DHT22;9548;56.920;14.804;2023-04-03T13:40:53;25.80;30.30
18839;DHT22;9548;56.920;14.804;2023-04-03T13:43:25;24.60;29.50
18839;DHT22;9548;56.920;14.804;2023-04-03T13:46:25;23.70;30.40
18839;DHT22;9548;56.920;14.804;2023-04-03T13:48:55;24.50;30.40
18839;DHT22;9548;56.920;14.804;2023-04-03T13:51:24;24.30;29.80
18839;DHT22;9548;56.920;14.804;2023-04-03T13:53:54;24.20;30.00
18839;DHT22;9548;56.920;14.804;2023-04-03T13:56:25;24.00;30.10
18839;DHT22;9548;56.920;14.804;2023-04-03T13:59:01;23.90;31.00
18839;DHT22;9548;56.920;14.804;2023-04-03T14:01:39;25.30;31.70
18839;DHT22;9548;56.920;14.804;2023-04-03T14:04:14;26.40;29.40
18839;DHT22;9548;56.920;14.804;2023-04-03T14:06:42;26.10;29.30
18839;DHT22;9548;56.920;14.804;2023-04-03T14:09:09;26.00;31.70
18839;DHT22;9548;56.920;14.804;2023-04-03T14:11:36;26.90;29.30
18839;DHT22;9548;56.920;14.804;2023-04-03T14:14:11;26.50;29.60
18839;DHT22;9548;56.920;14.804;2023-04-03T14:16:41;26.20;29.30
18839;DHT22;9548;56.920;14.804;2023-04-03T14:19:23;25.90;29.60
18839;DHT22;9548;56.920;14.804;2023-04-03T14:21:52;26.70;29.80
18839;DHT22;9548;56.920;14.804;2023-04-03T14:24:20;28.40;29.40
18839;DHT22;9548;56.920;14.804;2023-04-03T14:26:48;29.50;28.40
18839;DHT22;9548;56.920;14.804;2023-04-03T14:29:17;28.30;28.60
18839;DHT22;9548;56.920;14.804;2023-04-03T14:31:45;28.10;30.00
18839;DHT22;9548;56.920;14.804;2023-04-03T14:34:13;27.90;30.10
18839;DHT22;9548;56.920;14.804;2023-04-03T14:36:42;28.60;30.10
18839;DHT22;9548;56.920;14.804;2023-04-03T14:39:16;28.80;28.50
18839;DHT22;9548;56.920;14.804;2023-04-03T14:41:43;27.90;28.30
18839;DHT22;9548;56.920;14.804;2023-04-03T14:44:11;25.80;29.10
18839;DHT22;9548;56.920;14.804;2023-04-03T14:46:42;23.60;29.50
18839;DHT22;9548;56.920;14.804;2023-04-03T14:49:13;21.70;31.70
18839;DHT22;9548;56.920;14.804;2023-04-03T14:51:40;23.30;34.30
18839;DHT22;9548;56.920;14.804;2023-04-03T14:54:13;25.20;31.10
18839;DHT22;9548;56.920;14.804;2023-04-03T14:56:41;25.80;30.20
18839;DHT22;9548;56.920;14.804;2023-04-03T14:59:12;26.00;29.70
18839;DHT22;9548;56.920;14.804;2023-04-03T15:01:42;25.70;28.90
18839;DHT22;9548;56.920;14.804;2023-04-03T15:04:11;25.20;28.90
18839;DHT22;9548;56.920;14.804;2023-04-03T15:06:39;24.80;30.00
18839;DHT22;9548;56.920;14.804;2023-04-03T15:09:14;24.80;30.00
18839;DHT22;9548;56.920;14.804;2023-04-03T15:11:42;26.00;29.70
18839;DHT22;9548;56.920;14.804;2023-04-03T15:14:09;27.30;29.90
18839;DHT22;9548;56.920;14.804;2023-04-03T15:16:36;28.40;29.00
18839;DHT22;9548;56.920;14.804;2023-04-03T15:19:05;29.30;28.40
18839;DHT22;9548;56.920;14.804;2023-04-03T15:21:32;29.00;28.60
18839;DHT22;9548;56.920;14.804;2023-04-03T15:23:59;26.80;27.50
18839;DHT22;9548;56.920;14.804;2023-04-03T15:26:26;26.40;29.60
18839;DHT22;9548;56.920;14.804;2023-04-03T15:28:53;26.70;30.20
18839;DHT22;9548;56.920;14.804;2023-04-03T15:31:20;27.70;30.10
18839;DHT22;9548;56.920;14.804;2023-04-03T15:33:47;27.90;29.30
18839;DHT22;9548;56.920;14.804;2023-04-03T15:36:15;28.40;28.70
18839;DHT22;9548;56.920;14.804;2023-04-03T15:38:42;29.00;27.70
18839;DHT22;9548;56.920;14.804;2023-04-03T15:41:09;29.10;27.90
18839;DHT22;9548;56.920;14.804;2023-04-03T15:43:36;29.50;28.80
18839;DHT22;9548;56.920;14.804;2023-04-03T15:46:03;29.40;28.10
18839;DHT22;9548;56.920;14.804;2023-04-03T15:48:30;28.30;28.00
18839;DHT22;9548;56.920;14.804;2023-04-03T15:50:57;28.40;28.90
18839;DHT22;9548;56.920;14.804;2023-04-03T15:53:26;28.50;28.00
18839;DHT22;9548;56.920;14.804;2023-04-03T15:55:53;28.70;27.80
18839;DHT22;9548;56.920;14.804;2023-04-03T15:58:19;28.80;28.10
18839;DHT22;9548;56.920;14.804;2023-04-03T16:00:46;27.00;28.60
18839;DHT22;9548;56.920;14.804;2023-04-03T16:03:17;26.30;29.00
18839;DHT22;9548;56.920;14.804;2023-04-03T16:05:45;25.40;29.30
18839;DHT22;9548;56.920;14.804;2023-04-03T16:08:13;24.60;29.80
18839;DHT22;9548;56.920;14.804;2023-04-03T16:10:43;23.00;30.70
18839;DHT22;9548;56.920;14.804;2023-04-03T16:13:11;21.60;32.90
18839;DHT22;9548;56.920;14.804;2023-04-03T16:15:38;20.20;34.00
18839;DHT22;9548;56.920;14.804;2023-04-03T16:18:05;19.30;34.60
18839;DHT22;9548;56.920;14.804;2023-04-03T16:20:32;18.50;34.60
18839;DHT22;9548;56.920;14.804;2023-04-03T16:23:00;18.10;35.50
18839;DHT22;9548;56.920;14.804;2023-04-03T16:25:27;17.10;35.80
18839;DHT22;9548;56.920;14.804;2023-04-03T16:27:57;16.20;37.10
18839;DHT22;9548;56.920;14.804;2023-04-03T16:30:24;15.50;39.00
18839;DHT22;9548;56.920;14.804;2023-04-03T16:32:52;14.80;38.00
18839;DHT22;9548;56.920;14.804;2023-04-03T16:35:19;14.50;39.80
18839;DHT22;9548;56.920;14.804;2023-04-03T16:37:46;14.20;41.60
18839;DHT22;9548;56.920;14.804;2023-04-03T16:40:13;14.00;40.80
18839;DHT22;9548;56.920;14.804;2023-04-03T16:42:40;14.00;41.80
18839;DHT22;9548;56.920;14.804;2023-04-03T16:45:10;14.00;41.90
18839;DHT22;9548;56.920;14.804;2023-04-03T16:47:37;13.40;42.10
18839;DHT22;9548;56.920;14.804;2023-04-03T16:50:04;12.80;42.20
18839;DHT22;9548;56.920;14.804;2023-04-03T16:52:32;12.00;43.70
18839;DHT22;9548;56.920;14.804;2023-04-03T16:54:58;11.30;44.50
18839;DHT22;9548;56.920;14.804;2023-04-03T16:57:25;10.40;45.10
18839;DHT22;9548;56.920;14.804;2023-04-03T16:59:53;9.50;46.80
18839;DHT22;9548;56.920;14.804;2023-04-03T17:02:22;8.90;50.00
18839;DHT22;9548;56.920;14.804;2023-04-03T17:04:51;8.60;51.60
18839;DHT22;9548;56.920;14.804;2023-04-03T17:07:18;8.40;50.90
18839;DHT22;9548;56.920;14.804;2023-04-03T17:09:45;8.20;50.60
18839;DHT22;9548;56.920;14.804;2023-04-03T17:12:12;7.90;51.20
18839;DHT22;9548;56.920;14.804;2023-04-03T17:14:39;7.70;50.90
18839;DHT22;9548;56.920;14.804;2023-04-03T17:17:06;7.50;52.00
18839;DHT22;9548;56.920;14.804;2023-04-03T17:19:36;7.30;51.60
18839;DHT22;9548;56.920;14.804;2023-04-03T17:22:03;7.10;51.90
18839;DHT22;9548;56.920;14.804;2023-04-03T17:24:30;6.90;53.10